Time;durP1;ratioP1;P1;durP2;ratioP2;P2;SDS_P1;SDS_P2;PMS_P1;PMS_P2;Temp;Humidity;BMP_temperature;BMP_pressure;BME280_temperature;BME280_humidity;BME280_pressure;Samples;Min_cycle;Max_cycle;Signal;HPM_P1;HPM_P2
2021/08/27 00:00:05;;;;;;;50.83;39.35;;;19.80;96.00;;;;;;5057426;28;20032;-84
2021/08/27 00:02:30;;;;;;;51.25;39.33;;;19.70;96.00;;;;;;5055851;28;20025;-84
2021/08/27 00:04:56;;;;;;;48.70;37.42;;;19.70;96.30;;;;;;5056660;28;20057;-84
2021/08/27 00:07:22;;;;;;;38.72;31.27;;;19.70;96.50;;;;;;5055623;28;20045;-84
2021/08/27 00:09:47;;;;;;;34.67;28.17;;;19.60;97.00;;;;;;5055808;28;20035;-84
2021/08/27 00:12:13;;;;;;;38.15;29.90;;;19.70;97.10;;;;;;5056216;28;20504;-84
2021/08/27 00:14:39;;;;;;;30.00;23.45;;;19.60;97.10;;;;;;5056971;28;20108;-85
2021/08/27 00:17:05;;;;;;;28.42;23.05;;;19.60;97.30;;;;;;5055611;28;20036;-84
2021/08/27 00:19:31;;;;;;;28.17;21.40;;;19.70;97.50;;;;;;5055707;28;20021;-85
2021/08/27 00:21:57;;;;;;;28.42;22.50;;;19.70;97.30;;;;;;5055552;28;20448;-85
2021/08/27 00:24:22;;;;;;;21.85;17.23;;;19.70;97.00;;;;;;5055476;28;20032;-84
2021/08/27 00:26:48;;;;;;;22.80;18.33;;;19.70;97.10;;;;;;5055458;28;20033;-84
2021/08/27 00:29:14;;;;;;;22.25;18.35;;;19.70;97.00;;;;;;5056687;28;20418;-84
2021/08/27 00:31:40;;;;;;;22.42;17.38;;;19.70;97.10;;;;;;5057040;28;20100;-84
2021/08/27 00:34:05;;;;;;;21.60;15.98;;;19.70;97.20;;;;;;5055432;28;20426;-84
2021/08/27 00:36:31;;;;;;;20.23;15.55;;;19.70;97.20;;;;;;5056897;28;20082;-84
2021/08/27 00:38:57;;;;;;;19.58;14.60;;;19.70;97.10;;;;;;5056483;28;20025;-84
2021/08/27 00:41:22;;;;;;;18.40;14.20;;;19.70;96.80;;;;;;5055191;28;20033;-83
2021/08/27 00:43:48;;;;;;;18.42;14.82;;;19.80;96.90;;;;;;5056851;28;20027;-84
2021/08/27 00:46:14;;;;;;;19.60;14.80;;;19.80;96.70;;;;;;5054127;28;20120;-84
2021/08/27 00:48:40;;;;;;;20.38;14.68;;;19.80;96.60;;;;;;5055233;28;20115;-84
2021/08/27 00:51:06;;;;;;;21.15;15.95;;;19.70;96.80;;;;;;5056388;28;20104;-84
2021/08/27 00:53:35;;;;;;;20.30;15.43;;;19.80;96.90;;;;;;5058841;28;20021;-83
2021/08/27 00:56:02;;;;;;;19.80;15.95;;;19.70;97.20;;;;;;5056779;28;20082;-84
2021/08/27 00:58:28;;;;;;;19.85;15.15;;;19.80;96.90;;;;;;5054992;28;20025;-84
2021/08/27 01:00:54;;;;;;;18.13;14.85;;;19.70;96.80;;;;;;5056219;28;20067;-84
2021/08/27 01:03:20;;;;;;;18.73;15.60;;;19.70;96.80;;;;;;5055949;28;20108;-83
2021/08/27 01:06:17;;;;;;;18.88;14.93;;;19.70;96.90;;;;;;5055079;28;20055;-84
2021/08/27 01:09:05;;;;;;;14.93;13.07;;;19.80;96.60;;;;;;5055871;28;20080;-84
2021/08/27 01:11:34;;;;;;;17.70;13.60;;;19.80;96.40;;;;;;5055144;28;20120;-84
2021/08/27 01:14:06;;;;;;;20.42;14.73;;;19.80;95.90;;;;;;5054584;28;20032;-84
2021/08/27 01:16:44;;;;;;;15.32;12.98;;;19.80;95.70;;;;;;5054581;28;20036;-84
2021/08/27 01:19:16;;;;;;;16.75;13.07;;;19.80;95.50;;;;;;5055232;28;20356;-85
2021/08/27 01:22:16;;;;;;;16.45;13.30;;;19.80;95.50;;;;;;5055670;28;20372;-84
2021/08/27 01:24:46;;;;;;;16.17;13.73;;;19.80;95.00;;;;;;5054262;28;20458;-84
2021/08/27 01:27:16;;;;;;;18.13;15.05;;;19.80;94.90;;;;;;5055641;28;20078;-84
2021/08/27 01:29:56;;;;;;;18.55;14.73;;;19.70;95.00;;;;;;5055601;28;20036;-84
2021/08/27 01:32:45;;;;;;;17.25;13.65;;;19.80;95.10;;;;;;5054475;28;20029;-84
2021/08/27 01:35:11;;;;;;;16.75;13.93;;;19.70;94.60;;;;;;5055873;28;20021;-84
2021/08/27 01:37:39;;;;;;;17.90;15.05;;;19.70;94.60;;;;;;5055552;28;20036;-85
2021/08/27 01:40:06;;;;;;;17.98;13.93;;;19.60;94.80;;;;;;5055652;28;20524;-84
2021/08/27 01:42:33;;;;;;;18.10;15.50;;;19.60;95.10;;;;;;5054021;28;20067;-84
2021/08/27 01:45:00;;;;;;;15.85;12.95;;;19.60;95.20;;;;;;5055157;28;20051;-85
2021/08/27 01:47:29;;;;;;;14.88;12.40;;;19.50;95.00;;;;;;5053837;28;20044;-84
2021/08/27 01:49:55;;;;;;;14.70;12.25;;;19.50;94.70;;;;;;5055268;28;20459;-85
2021/08/27 01:52:22;;;;;;;15.82;12.32;;;19.50;94.70;;;;;;5055068;28;20116;-84
2021/08/27 01:54:48;;;;;;;15.63;12.25;;;19.50;94.60;;;;;;5055153;28;20029;-85
2021/08/27 01:57:14;;;;;;;28.00;23.75;;;19.40;94.60;;;;;;5054912;28;20047;-84
2021/08/27 01:59:43;;;;;;;47.83;37.88;;;19.40;94.70;;;;;;5054909;28;20032;-84
2021/08/27 02:02:13;;;;;;;44.10;35.08;;;19.40;94.70;;;;;;5054996;28;20021;-83
2021/08/27 02:04:42;;;;;;;51.03;40.22;;;19.40;94.70;;;;;;5054917;28;20124;-83
2021/08/27 02:07:09;;;;;;;48.90;37.40;;;19.40;94.70;;;;;;5054896;28;20452;-84
2021/08/27 02:09:36;;;;;;;41.45;29.70;;;19.40;94.60;;;;;;5055344;28;20048;-84
2021/08/27 02:12:04;;;;;;;30.52;23.73;;;19.40;94.80;;;;;;5055226;28;20024;-84
2021/08/27 02:14:30;;;;;;;24.30;19.90;;;19.40;94.80;;;;;;5053367;28;20029;-84
2021/08/27 02:16:56;;;;;;;21.92;16.92;;;19.30;94.80;;;;;;5053505;28;20119;-85
2021/08/27 02:19:22;;;;;;;18.58;15.85;;;19.30;94.90;;;;;;5054922;28;20499;-84
2021/08/27 02:21:54;;;;;;;16.17;13.75;;;19.30;95.10;;;;;;5054566;28;20029;-85
2021/08/27 02:24:23;;;;;;;17.15;13.32;;;19.30;95.00;;;;;;5053275;28;20097;-84
2021/08/27 02:26:49;;;;;;;16.85;12.52;;;19.30;95.00;;;;;;5054310;28;20029;-84
2021/08/27 02:29:18;;;;;;;16.35;12.63;;;19.30;95.00;;;;;;5052989;28;20057;-83
2021/08/27 02:31:53;;;;;;;16.35;12.23;;;19.30;94.90;;;;;;5053514;28;20459;-84
2021/08/27 02:34:19;;;;;;;;;;;19.30;95.20;;;;;;5054028;28;20482;-84
2021/08/27 02:36:47;;;;;;;;;;;19.30;95.00;;;;;;5053450;28;19905;-84
2021/08/27 02:39:16;;;;;;;12.38;10.27;;;19.20;94.90;;;;;;5052909;28;19958;-84
2021/08/27 02:41:42;;;;;;;12.82;10.77;;;19.10;95.50;;;;;;5054271;28;20044;-83
2021/08/27 02:44:08;;;;;;;13.70;10.73;;;19.10;95.60;;;;;;5059675;28;20021;-83
2021/08/27 02:46:33;;;;;;;14.88;11.13;;;19.10;95.80;;;;;;5056786;28;20402;-84
2021/08/27 02:48:59;;;;;;;17.38;12.40;;;19.20;95.90;;;;;;5054633;28;20072;-84
2021/08/27 02:51:34;;;;;;;15.98;12.73;;;19.20;95.90;;;;;;5055512;28;20047;-84
2021/08/27 02:54:03;;;;;;;15.27;11.55;;;19.20;95.90;;;;;;5055510;28;20021;-84
2021/08/27 02:56:33;;;;;;;16.13;11.98;;;19.20;95.80;;;;;;5052776;28;20028;-84
2021/08/27 02:59:00;;;;;;;15.18;12.10;;;19.20;96.00;;;;;;5054877;28;20422;-84
2021/08/27 03:01:36;;;;;;;15.43;11.40;;;19.20;96.00;;;;;;5052797;28;20116;-84
2021/08/27 03:04:27;;;;;;;17.42;13.15;;;19.20;95.90;;;;;;5052529;28;20480;-83
2021/08/27 03:07:00;;;;;;;15.98;11.65;;;19.20;95.90;;;;;;5053903;28;20044;-83
2021/08/27 03:09:30;;;;;;;17.00;12.02;;;19.20;96.00;;;;;;5053594;28;20056;-85
2021/08/27 03:12:02;;;;;;;15.02;11.20;;;19.30;96.00;;;;;;5052655;28;20063;-84
2021/08/27 03:14:43;;;;;;;17.40;12.18;;;19.30;95.70;;;;;;5053250;28;20049;-83
2021/08/27 03:17:15;;;;;;;15.05;11.57;;;19.30;95.40;;;;;;5053831;28;20033;-83
2021/08/27 03:19:49;;;;;;;16.63;12.35;;;19.30;95.20;;;;;;5052474;28;20107;-84
2021/08/27 03:22:21;;;;;;;15.35;11.38;;;19.30;95.10;;;;;;5053179;28;20052;-84
2021/08/27 03:24:55;;;;;;;20.10;13.55;;;19.30;94.90;;;;;;5053778;28;20033;-85
2021/08/27 03:27:24;;;;;;;17.77;13.20;;;19.40;94.90;;;;;;5053624;28;20036;-84
2021/08/27 03:29:54;;;;;;;19.67;13.02;;;19.40;94.70;;;;;;5052353;28;20115;-85
2021/08/27 03:32:22;;;;;;;19.25;13.32;;;19.40;94.50;;;;;;5053792;28;20483;-85
2021/08/27 03:34:49;;;;;;;19.85;13.18;;;19.40;94.50;;;;;;5053892;28;20386;-85
2021/08/27 03:37:16;;;;;;;21.52;14.95;;;19.40;94.40;;;;;;5053596;28;20036;-87
2021/08/27 03:39:42;;;;;;;23.25;14.82;;;19.30;94.60;;;;;;5052121;28;20029;-81
2021/08/27 03:42:09;;;;;;;23.75;15.07;;;19.40;94.70;;;;;;5053331;28;20132;-85
2021/08/27 03:44:36;;;;;;;25.80;16.35;;;19.40;94.50;;;;;;5052183;28;20025;-86
2021/08/27 03:47:03;;;;;;;22.15;14.38;;;19.40;94.50;;;;;;5052113;28;20044;-86
2021/08/27 03:49:29;;;;;;;26.95;15.73;;;19.30;94.50;;;;;;5052098;28;20029;-86
2021/08/27 03:51:56;;;;;;;26.80;15.65;;;19.30;94.60;;;;;;5053376;28;20108;-86
2021/08/27 03:54:23;;;;;;;25.70;15.93;;;19.30;94.50;;;;;;5053272;28;20479;-86
2021/08/27 03:56:50;;;;;;;25.92;14.88;;;19.30;94.60;;;;;;5053292;28;20064;-85
2021/08/27 03:59:21;;;;;;;29.67;16.90;;;19.30;94.60;;;;;;5053258;28;20021;-85
2021/08/27 04:01:47;;;;;;;26.23;15.57;;;19.30;94.60;;;;;;5051899;28;20029;-84
2021/08/27 04:04:20;;;;;;;23.40;14.90;;;19.30;94.70;;;;;;5053214;28;20051;-84
2021/08/27 04:07:00;;;;;;;24.35;15.25;;;19.40;94.60;;;;;;5052737;28;20028;-84
2021/08/27 04:09:28;;;;;;;23.63;14.85;;;19.40;94.30;;;;;;5051361;28;20116;-84
2021/08/27 04:11:55;;;;;;;28.30;15.98;;;19.50;94.30;;;;;;5052940;28;20029;-84
2021/08/27 04:14:21;;;;;;;29.08;16.67;;;19.50;94.00;;;;;;5052189;28;20475;-84
2021/08/27 04:16:47;;;;;;;22.00;14.93;;;19.60;94.40;;;;;;5051936;28;20083;-87
2021/08/27 04:19:13;;;;;;;28.83;16.88;;;19.60;93.90;;;;;;5053286;28;20379;-86
2021/08/27 04:21:40;;;;;;;24.92;14.40;;;19.70;93.50;;;;;;5055452;28;20028;-85
2021/08/27 04:24:06;;;;;;;23.48;14.23;;;19.70;93.10;;;;;;5055575;28;20139;-86
2021/08/27 04:26:33;;;;;;;24.58;14.88;;;19.60;93.00;;;;;;5057919;28;20052;-86
2021/08/27 04:28:59;;;;;;;22.95;14.35;;;19.60;93.00;;;;;;5056778;28;20032;-87
2021/08/27 04:31:24;;;;;;;22.70;14.27;;;19.70;93.00;;;;;;5056835;28;20029;-86
2021/08/27 04:33:50;;;;;;;21.05;14.23;;;19.70;92.80;;;;;;5057837;28;20120;-86
2021/08/27 04:36:16;;;;;;;21.60;14.98;;;19.70;92.50;;;;;;5061220;28;20374;-87
2021/08/27 04:38:42;;;;;;;22.20;13.95;;;19.80;92.60;;;;;;5058360;28;20025;-87
2021/08/27 04:41:07;;;;;;;23.30;14.88;;;19.80;92.50;;;;;;5057395;28;20029;-88
2021/08/27 04:43:33;;;;;;;25.88;16.35;;;19.80;92.20;;;;;;5055660;28;20028;-66
2021/08/27 04:45:59;;;;;;;24.70;15.85;;;19.80;92.10;;;;;;5056012;28;20067;-68
2021/08/27 04:48:25;;;;;;;21.80;14.50;;;19.80;92.00;;;;;;5054859;28;20033;-68
2021/08/27 04:50:51;;;;;;;24.50;15.85;;;19.80;91.90;;;;;;5056072;28;20040;-68
2021/08/27 04:53:17;;;;;;;22.30;14.68;;;19.80;91.90;;;;;;5054835;28;20393;-68
2021/08/27 04:55:42;;;;;;;21.67;14.88;;;19.90;91.70;;;;;;5056082;28;20036;-69
2021/08/27 04:58:09;;;;;;;21.95;14.77;;;19.80;91.80;;;;;;5055799;28;20029;-68
2021/08/27 05:00:35;;;;;;;23.48;15.73;;;19.80;91.80;;;;;;5055992;28;20048;-68
2021/08/27 05:03:00;;;;;;;20.45;14.57;;;19.80;91.90;;;;;;5055769;28;20033;-68
2021/08/27 05:05:26;;;;;;;22.40;14.75;;;19.80;91.70;;;;;;5055554;28;20099;-68
2021/08/27 05:07:52;;;;;;;22.38;15.48;;;19.80;91.70;;;;;;5054699;28;20072;-68
2021/08/27 05:10:18;;;;;;;20.00;13.40;;;19.80;91.60;;;;;;5055636;28;20033;-69
2021/08/27 05:12:43;;;;;;;26.45;16.17;;;19.80;91.60;;;;;;5056152;28;20401;-68
2021/08/27 05:15:10;;;;;;;23.73;15.68;;;19.90;91.70;;;;;;5054333;28;20024;-68
2021/08/27 05:17:37;;;;;;;22.00;15.35;;;19.90;91.70;;;;;;5054513;28;20028;-68
2021/08/27 05:20:04;;;;;;;24.88;16.05;;;19.80;91.50;;;;;;5053739;28;20021;-69
2021/08/27 05:22:30;;;;;;;26.33;16.35;;;19.90;91.30;;;;;;5053749;28;20043;-68
2021/08/27 05:24:56;;;;;;;22.67;15.82;;;19.90;91.30;;;;;;5055672;28;20025;-69
2021/08/27 05:27:22;;;;;;;23.77;16.77;;;19.90;91.70;;;;;;5054092;28;20075;-68
2021/08/27 05:29:47;;;;;;;25.00;16.83;;;19.90;91.20;;;;;;5055501;28;20367;-68
2021/08/27 05:32:13;;;;;;;22.50;15.93;;;19.90;91.10;;;;;;5054543;28;20029;-68
2021/08/27 05:34:39;;;;;;;24.95;17.40;;;19.90;91.10;;;;;;5055034;28;20052;-68
2021/08/27 05:37:04;;;;;;;25.65;17.02;;;19.90;91.00;;;;;;5055259;28;20111;-68
2021/08/27 05:39:30;;;;;;;28.80;18.17;;;19.90;91.10;;;;;;5053980;28;20051;-69
2021/08/27 05:41:57;;;;;;;25.50;17.42;;;19.90;91.10;;;;;;5053745;28;20510;-68
2021/08/27 05:44:23;;;;;;;25.75;17.13;;;19.90;91.30;;;;;;5055126;28;20060;-68
2021/08/27 05:46:50;;;;;;;27.48;17.83;;;19.90;91.30;;;;;;5053538;28;20060;-68
2021/08/27 05:49:16;;;;;;;25.40;18.17;;;19.90;91.20;;;;;;5053552;28;20029;-68
2021/08/27 05:51:42;;;;;;;28.48;17.90;;;19.90;91.10;;;;;;5055387;28;20039;-68
2021/08/27 05:54:09;;;;;;;24.42;17.10;;;19.90;91.10;;;;;;5055224;28;20033;-69
2021/08/27 05:56:35;;;;;;;28.17;18.50;;;20.00;91.00;;;;;;5055151;28;20446;-69
2021/08/27 05:59:01;;;;;;;29.98;18.35;;;20.00;91.20;;;;;;5053517;28;20029;-69
2021/08/27 06:01:26;;;;;;;30.98;19.48;;;20.00;90.70;;;;;;5055201;28;20113;-68
2021/08/27 06:03:52;;;;;;;36.17;21.25;;;19.90;90.60;;;;;;5054640;28;20055;-69
2021/08/27 06:06:18;;;;;;;36.40;20.95;;;19.90;90.80;;;;;;5054493;28;20033;-68
2021/08/27 06:08:43;;;;;;;31.15;20.00;;;19.90;90.90;;;;;;5053507;28;20025;-69
2021/08/27 06:11:09;;;;;;;31.00;19.70;;;19.90;90.80;;;;;;5055021;28;20033;-68
2021/08/27 06:13:35;;;;;;;31.70;19.17;;;19.90;90.90;;;;;;5054827;28;20029;-68
2021/08/27 06:16:01;;;;;;;31.33;19.45;;;19.90;91.00;;;;;;5053435;28;20033;-68
2021/08/27 06:18:26;;;;;;;31.30;19.17;;;20.00;90.90;;;;;;5054625;28;20467;-69
2021/08/27 06:20:52;;;;;;;31.60;19.70;;;20.10;90.70;;;;;;5054550;28;20375;-68
2021/08/27 06:23:19;;;;;;;30.00;20.15;;;20.20;90.40;;;;;;5054604;28;20082;-69
2021/08/27 06:25:44;;;;;;;32.55;19.98;;;20.30;90.10;;;;;;5053060;28;20071;-68
2021/08/27 06:28:10;;;;;;;30.45;20.15;;;20.40;90.00;;;;;;5054314;28;20029;-68
2021/08/27 06:30:36;;;;;;;27.90;19.35;;;20.40;89.80;;;;;;5053020;28;20490;-68
2021/08/27 06:33:02;;;;;;;29.73;19.48;;;20.50;89.40;;;;;;5052734;28;20029;-68
2021/08/27 06:35:30;;;;;;;28.98;19.45;;;20.60;89.10;;;;;;5053749;28;20467;-68
2021/08/27 06:40:40;;;;;;;32.15;20.00;;;20.60;87.80;;;;;;5054554;28;20082;-68
2021/08/27 06:43:06;;;;;;;28.30;19.00;;;20.50;87.30;;;;;;5053568;28;20029;-68
2021/08/27 06:45:32;;;;;;;37.03;20.63;;;20.50;87.60;;;;;;5053726;28;20061;-69
2021/08/27 06:47:57;;;;;;;29.27;19.67;;;20.50;88.10;;;;;;5053713;28;20455;-69
2021/08/27 06:50:24;;;;;;;35.17;23.17;;;20.40;88.30;;;;;;5053973;28;20064;-69
2021/08/27 06:52:50;;;;;;;31.08;20.90;;;20.40;88.10;;;;;;5052799;28;20131;-68
2021/08/27 06:55:16;;;;;;;29.55;18.42;;;20.50;87.90;;;;;;5053842;28;20025;-68
2021/08/27 06:57:42;;;;;;;27.40;18.73;;;20.50;87.50;;;;;;5053829;28;20067;-68
2021/08/27 07:00:08;;;;;;;30.30;19.58;;;20.50;87.30;;;;;;5053602;28;20052;-69
2021/08/27 07:02:34;;;;;;;27.70;18.75;;;20.50;87.40;;;;;;5053793;28;20060;-68
2021/08/27 07:04:59;;;;;;;30.50;19.95;;;20.60;87.20;;;;;;5053382;28;20084;-69
2021/08/27 07:07:25;;;;;;;34.40;21.60;;;20.60;87.10;;;;;;5053787;28;20029;-68
2021/08/27 07:09:51;;;;;;;34.70;21.73;;;20.60;86.70;;;;;;5053666;28;20023;-68
2021/08/27 07:12:16;;;;;;;33.67;21.13;;;20.50;86.60;;;;;;5052504;28;20029;-69
2021/08/27 07:14:43;;;;;;;34.13;21.75;;;20.50;86.60;;;;;;5053354;28;20029;-69
2021/08/27 07:17:09;;;;;;;29.88;20.27;;;20.40;86.80;;;;;;5053886;28;20063;-68
2021/08/27 07:19:35;;;;;;;27.65;19.42;;;20.40;87.20;;;;;;5053418;28;20417;-69
2021/08/27 07:22:00;;;;;;;31.05;20.50;;;20.40;86.80;;;;;;5052236;28;20124;-68
2021/08/27 07:24:26;;;;;;;31.00;19.52;;;20.40;86.80;;;;;;5052260;28;20035;-68
2021/08/27 07:26:52;;;;;;;32.75;20.98;;;20.40;87.00;;;;;;5053258;28;20029;-68
2021/08/27 07:29:17;;;;;;;35.10;21.52;;;20.50;87.40;;;;;;5053105;28;20036;-68
2021/08/27 07:31:43;;;;;;;34.47;21.38;;;20.50;87.30;;;;;;5053146;28;20475;-68
2021/08/27 07:34:08;;;;;;;35.17;21.73;;;20.60;87.30;;;;;;5053411;28;20025;-69
2021/08/27 07:36:34;;;;;;;35.95;21.63;;;20.60;87.20;;;;;;5053520;28;20470;-68
2021/08/27 07:39:00;;;;;;;37.47;20.85;;;20.60;86.60;;;;;;5053224;28;20383;-69
2021/08/27 07:41:25;;;;;;;32.92;22.15;;;20.70;86.40;;;;;;5052134;28;20033;-68
2021/08/27 07:43:51;;;;;;;33.38;21.85;;;20.80;86.10;;;;;;5053357;28;20096;-69
2021/08/27 07:46:17;;;;;;;36.45;22.65;;;20.90;85.70;;;;;;5053525;28;20417;-69
2021/08/27 07:48:42;;;;;;;35.25;22.83;;;20.90;85.50;;;;;;5053268;28;20029;-69
2021/08/27 07:51:08;;;;;;;34.47;22.95;;;20.90;85.70;;;;;;5053295;28;20021;-68
2021/08/27 07:53:34;;;;;;;32.63;21.85;;;21.00;85.70;;;;;;5051838;28;20356;-68
2021/08/27 07:55:59;;;;;;;36.53;22.73;;;21.00;84.90;;;;;;5056270;28;20025;-68
2021/08/27 07:58:25;;;;;;;35.65;21.50;;;21.10;84.60;;;;;;5057012;28;20063;-69
2021/08/27 08:00:51;;;;;;;33.72;22.33;;;21.10;84.30;;;;;;5057056;28;20025;-68
2021/08/27 08:03:16;;;;;;;31.90;21.50;;;21.20;84.20;;;;;;5056897;28;20025;-69
2021/08/27 08:05:43;;;;;;;33.15;21.92;;;21.30;84.20;;;;;;5056796;28;20383;-68
2021/08/27 08:08:09;;;;;;;34.38;21.75;;;21.40;83.40;;;;;;5057146;28;20157;-68
2021/08/27 08:10:34;;;;;;;36.75;22.77;;;21.50;83.50;;;;;;5056890;28;20025;-68
2021/08/27 08:13:00;;;;;;;36.47;23.73;;;21.50;83.40;;;;;;5056770;28;20388;-69
2021/08/27 08:15:28;;;;;;;34.28;22.70;;;21.40;82.80;;;;;;5057199;28;20064;-68
2021/08/27 08:17:54;;;;;;;34.33;22.42;;;21.30;83.10;;;;;;5056924;28;20025;-69
2021/08/27 08:20:20;;;;;;;36.50;23.98;;;21.30;83.10;;;;;;5057073;28;20459;-69
2021/08/27 08:22:46;;;;;;;35.38;23.20;;;21.30;83.10;;;;;;5057066;28;20029;-68
2021/08/27 08:25:11;;;;;;;36.13;24.02;;;21.30;83.00;;;;;;5056624;28;20033;-68
2021/08/27 08:27:37;;;;;;;36.35;23.40;;;21.30;83.50;;;;;;5055279;28;20379;-67
2021/08/27 08:30:04;;;;;;;34.60;23.10;;;21.30;83.70;;;;;;5056472;28;20060;-68
2021/08/27 08:32:30;;;;;;;36.10;23.65;;;21.30;83.40;;;;;;5055200;28;20079;-69
2021/08/27 08:34:56;;;;;;;31.77;21.45;;;21.40;82.80;;;;;;5055204;28;20463;-68
2021/08/27 08:37:22;;;;;;;30.40;21.13;;;21.40;82.20;;;;;;5056380;28;20035;-68
2021/08/27 08:39:48;;;;;;;32.28;21.85;;;21.40;81.90;;;;;;5055536;28;20025;-68
2021/08/27 08:42:14;;;;;;;31.85;22.00;;;21.40;82.30;;;;;;5055079;28;20029;-68
2021/08/27 08:44:41;;;;;;;30.73;21.05;;;21.40;82.00;;;;;;5054917;28;20053;-68
2021/08/27 08:47:08;;;;;;;29.58;21.17;;;21.50;82.00;;;;;;5055432;28;20550;-68
2021/08/27 08:49:35;;;;;;;30.95;21.70;;;21.50;81.80;;;;;;5056201;28;20112;-68
2021/08/27 08:52:02;;;;;;;29.95;21.15;;;21.50;81.80;;;;;;5054827;28;20028;-68
2021/08/27 08:54:28;;;;;;;30.10;21.70;;;21.40;81.90;;;;;;5055926;28;20025;-68
2021/08/27 08:56:55;;;;;;;29.67;20.55;;;21.50;82.20;;;;;;5054778;28;20036;-68
2021/08/27 08:59:21;;;;;;;30.80;19.98;;;21.50;82.30;;;;;;5055816;28;20024;-68
2021/08/27 09:01:47;;;;;;;30.63;21.08;;;21.50;82.70;;;;;;5056014;28;20017;-68
2021/08/27 09:04:13;;;;;;;30.95;21.52;;;21.50;82.30;;;;;;5054647;28;20417;-68
2021/08/27 09:06:38;;;;;;;30.45;19.63;;;21.60;81.90;;;;;;5053746;28;20041;-68
2021/08/27 09:09:04;;;;;;;28.90;19.85;;;21.60;81.50;;;;;;5055755;28;20136;-69
2021/08/27 09:11:31;;;;;;;26.90;19.50;;;21.60;81.50;;;;;;5054547;28;20029;-69
2021/08/27 09:14:03;;;;;;;27.35;18.60;;;21.60;81.30;;;;;;5054359;28;20028;-69
2021/08/27 09:16:32;;;;;;;27.52;18.85;;;21.70;80.80;;;;;;5056003;28;20035;-69
2021/08/27 09:18:58;;;;;;;26.17;19.23;;;21.70;80.70;;;;;;5055885;28;20108;-69
2021/08/27 09:21:38;;;;;;;26.75;18.63;;;21.80;80.50;;;;;;5055434;28;20100;-69
2021/08/27 09:24:22;;;;;;;25.80;19.23;;;21.90;80.50;;;;;;5054401;28;20082;-69
2021/08/27 09:26:59;;;;;;;27.10;19.38;;;22.00;79.80;;;;;;5055426;28;20037;-68
2021/08/27 09:29:32;;;;;;;26.30;18.77;;;22.00;79.30;;;;;;5054310;28;20475;-69
2021/08/27 09:31:58;;;;;;;25.83;18.75;;;21.90;78.90;;;;;;5055248;28;20025;-69
2021/08/27 09:34:29;;;;;;;25.67;18.88;;;21.80;79.10;;;;;;5054146;28;20031;-69
2021/08/27 09:36:58;;;;;;;26.27;18.83;;;21.70;79.40;;;;;;5054041;28;20391;-68
2021/08/27 09:39:34;;;;;;;29.38;19.92;;;21.60;79.50;;;;;;5055342;28;20057;-68
2021/08/27 09:42:01;;;;;;;25.48;18.90;;;21.50;80.50;;;;;;5055188;28;20035;-68
2021/08/27 09:44:27;;;;;;;24.55;18.45;;;21.60;80.80;;;;;;5054011;28;20032;-68
2021/08/27 09:46:52;;;;;;;26.83;19.23;;;21.50;81.00;;;;;;5053593;28;20043;-68
2021/08/27 09:49:33;;;;;;;21.95;16.52;;;21.60;80.60;;;;;;5053960;28;20033;-69
2021/08/27 09:52:04;;;;;;;24.38;17.95;;;21.60;79.60;;;;;;5053593;28;20036;-68
2021/08/27 09:54:34;;;;;;;25.77;18.40;;;21.60;80.00;;;;;;5054918;28;20025;-68
2021/08/27 09:57:04;;;;;;;23.02;17.23;;;21.60;80.20;;;;;;5055046;28;20075;-69
2021/08/27 09:59:34;;;;;;;21.95;17.15;;;21.50;80.20;;;;;;5054943;28;20017;-68
2021/08/27 10:02:01;;;;;;;25.55;18.75;;;21.40;79.80;;;;;;5055122;28;20021;-69
2021/08/27 10:04:27;;;;;;;25.40;19.02;;;21.30;80.30;;;;;;5054573;28;20067;-68
2021/08/27 10:06:53;;;;;;;26.08;19.02;;;21.20;80.50;;;;;;5053470;28;20459;-68
2021/08/27 10:09:18;;;;;;;27.10;19.30;;;21.10;80.70;;;;;;5054717;28;20033;-68
2021/08/27 10:11:45;;;;;;;25.38;19.20;;;21.10;81.30;;;;;;5054670;28;20029;-68
2021/08/27 10:14:11;;;;;;;25.00;19.00;;;21.00;81.50;;;;;;5055059;28;20029;-68
2021/08/27 10:16:37;;;;;;;25.58;19.52;;;21.00;81.80;;;;;;5054688;28;20380;-69
2021/08/27 10:19:03;;;;;;;23.55;18.50;;;21.00;81.90;;;;;;5053590;28;20025;-68
2021/08/27 10:21:31;;;;;;;24.65;18.73;;;21.00;82.00;;;;;;5054507;28;20068;-68
2021/08/27 10:23:57;;;;;;;23.05;17.77;;;21.00;82.00;;;;;;5054302;28;20424;-69
2021/08/27 10:26:25;;;;;;;23.70;18.13;;;21.10;82.20;;;;;;5052948;28;20095;-69
2021/08/27 10:28:52;;;;;;;24.92;18.80;;;21.20;81.90;;;;;;5054525;28;20032;-69
2021/08/27 10:31:38;;;;;;;23.95;18.27;;;21.50;81.90;;;;;;5053211;28;20208;-70
2021/08/27 10:34:04;;;;;;;24.23;18.42;;;21.90;81.10;;;;;;5054378;28;20029;-69
2021/08/27 10:36:30;;;;;;;25.73;20.40;;;22.30;80.30;;;;;;5053188;28;20086;-69
2021/08/27 10:38:58;;;;;;;26.70;19.42;;;22.60;78.80;;;;;;5054196;28;20028;-69
2021/08/27 10:41:39;;;;;;;24.55;19.15;;;23.00;77.40;;;;;;5053979;28;20039;-69
2021/08/27 10:44:09;;;;;;;22.52;18.60;;;23.40;75.90;;;;;;5054519;28;20021;-70
2021/08/27 10:46:47;;;;;;;24.48;18.23;;;23.60;74.80;;;;;;5053743;28;20039;-69
2021/08/27 10:49:14;;;;;;;22.02;16.80;;;23.50;73.30;;;;;;5052876;28;20033;-69
2021/08/27 10:51:43;;;;;;;21.42;16.40;;;23.40;72.70;;;;;;5052737;28;20029;-69
2021/08/27 10:54:10;;;;;;;20.48;15.77;;;23.40;72.50;;;;;;5052869;28;20087;-69
2021/08/27 10:56:53;;;;;;;24.85;18.33;;;23.50;72.40;;;;;;5052561;28;20119;-69
2021/08/27 10:59:22;;;;;;;23.38;17.48;;;23.60;71.70;;;;;;5053850;28;20028;-69
2021/08/27 11:02:00;;;;;;;24.55;17.90;;;23.50;71.40;;;;;;5052527;28;20024;-69
2021/08/27 11:04:31;;;;;;;27.55;19.08;;;23.50;71.40;;;;;;5052280;28;20048;-69
2021/08/27 11:07:05;;;;;;;28.50;19.60;;;23.50;71.30;;;;;;5053816;28;20039;-69
2021/08/27 11:09:36;;;;;;;26.60;18.73;;;23.70;71.10;;;;;;5053885;28;20029;-69
2021/08/27 11:12:13;;;;;;;24.73;18.02;;;23.70;71.10;;;;;;5053499;28;20035;-69
2021/08/27 11:14:40;;;;;;;23.83;17.00;;;23.80;70.60;;;;;;5053753;28;20025;-69
2021/08/27 11:17:08;;;;;;;20.20;15.85;;;23.90;70.40;;;;;;5053796;28;20028;-70
2021/08/27 11:19:35;;;;;;;20.58;14.75;;;23.90;70.20;;;;;;5052636;28;20025;-69
2021/08/27 11:22:10;;;;;;;17.70;14.27;;;24.00;70.40;;;;;;5053587;28;20025;-69
2021/08/27 11:24:37;;;;;;;20.83;14.68;;;24.10;70.40;;;;;;5053636;28;20158;-70
2021/08/27 11:27:16;;;;;;;17.50;14.30;;;24.20;70.10;;;;;;5052154;28;20033;-69
2021/08/27 11:29:48;;;;;;;17.30;13.98;;;24.30;70.00;;;;;;5053257;28;20037;-69
2021/08/27 11:32:16;;;;;;;18.90;13.55;;;24.30;69.80;;;;;;5053430;28;20480;-69
2021/08/27 11:34:48;;;;;;;15.40;12.25;;;24.30;69.60;;;;;;5052281;28;20029;-69
2021/08/27 11:37:14;;;;;;;16.27;12.52;;;24.20;68.80;;;;;;5052158;28;20083;-69
2021/08/27 11:39:41;;;;;;;15.45;12.80;;;24.20;68.70;;;;;;5053438;28;20075;-69
2021/08/27 11:42:06;;;;;;;15.75;13.25;;;24.40;68.90;;;;;;5052124;28;20029;-70
2021/08/27 11:44:40;;;;;;;15.63;13.35;;;24.50;68.30;;;;;;5051955;28;20134;-69
2021/08/27 11:47:09;;;;;;;15.90;13.50;;;24.50;67.70;;;;;;5053229;28;20021;-69
2021/08/27 11:49:38;;;;;;;16.17;13.70;;;24.50;68.10;;;;;;5051818;28;20048;-69
2021/08/27 11:52:14;;;;;;;16.83;13.95;;;24.60;68.70;;;;;;5053287;28;20053;-69
2021/08/27 11:54:40;;;;;;;16.40;13.80;;;24.80;68.20;;;;;;5052646;28;20029;-70
2021/08/27 11:57:14;;;;;;;18.02;14.98;;;25.00;67.80;;;;;;5053374;28;20116;-69
2021/08/27 11:59:41;;;;;;;16.23;13.30;;;25.30;66.50;;;;;;5053257;28;20025;-69
2021/08/27 12:02:33;;;;;;;16.33;13.80;;;25.40;66.20;;;;;;5053025;28;20539;-70
2021/08/27 12:05:02;;;;;;;18.10;14.23;;;25.30;65.50;;;;;;5050186;28;20487;-69
2021/08/27 12:07:29;;;;;;;16.70;14.18;;;25.20;65.80;;;;;;5053116;28;20033;-69
2021/08/27 12:10:10;;;;;;;18.40;14.18;;;25.20;65.70;;;;;;5053068;28;20033;-69
2021/08/27 12:12:38;;;;;;;19.23;14.70;;;25.30;66.20;;;;;;5052959;28;20028;-70
2021/08/27 12:15:06;;;;;;;15.82;13.02;;;25.30;65.50;;;;;;5051830;28;20121;-70
2021/08/27 12:17:32;;;;;;;19.55;13.27;;;25.30;65.30;;;;;;5053393;28;20118;-70
2021/08/27 12:19:59;;;;;;;15.88;13.32;;;25.40;65.50;;;;;;5053094;28;20461;-70
2021/08/27 12:22:32;;;;;;;15.13;13.07;;;25.60;65.70;;;;;;5052909;28;20100;-69
2021/08/27 12:24:58;;;;;;;16.42;13.75;;;25.60;65.50;;;;;;5051705;28;20029;-70
2021/08/27 12:27:26;;;;;;;19.75;13.45;;;25.70;65.40;;;;;;5051657;28;20064;-69
2021/08/27 12:30:11;;;;;;;16.17;13.23;;;25.60;65.70;;;;;;5051598;28;20029;-69
2021/08/27 12:32:38;;;;;;;18.52;13.63;;;25.60;64.80;;;;;;5051532;28;20021;-69
2021/08/27 12:35:08;;;;;;;21.48;13.73;;;25.30;65.10;;;;;;5052963;28;20040;-69